KGC weather

Kingscote Airport
South Australia, Australia

Public forecast

Using degrees Celsius for public forecast. Weather courtesy of forecast.io.

Closest aviation weather report (METAR) to Kingscote Airport

Closest report is Adelaide International Airport, 67.7 nm (125.3 km) NE. Retrieved 2019/10/14 11:30 UTC (16 minutes ago):

YPAD 141130Z 16007KT 9999 FEW018 13/10 Q1017 NOSIG

Closest aviation forecast (TAF) to Kingscote Airport

Closest forecast is Adelaide International Airport, 67.7 nm (125.3 km) NE. Retrieved 2019/10/14 06:00 UTC (6 hours ago):

TAF YPAD 140513Z 1406/1512 22012KT 9999 SCT030 FM140900 14007KT 9999 FEW030 FM141600 06005KT CAVOK FM150000 22008KT CAVOK FM150300 22010KT 9999 -SHRA NSC FM150900 14007KT 9999 -RA SCT020